createdAt,value
2018-05-16T00:04:27.524Z,100324.56
2018-05-16T00:07:10.116Z,100325.50
2018-05-16T00:09:44.807Z,100335.84
2018-05-16T00:12:20.334Z,100337.53
2018-05-16T00:14:52.144Z,100333.55
2018-05-16T00:17:38.775Z,100328.06
2018-05-16T00:20:08.973Z,100339.59
2018-05-16T00:22:41.653Z,100339.67
2018-05-16T00:25:11.405Z,100341.41
2018-05-16T00:27:43.334Z,100339.58
2018-05-16T00:30:12.780Z,100338.09
2018-05-16T00:32:41.773Z,100335.44
2018-05-16T00:35:13.603Z,100334.11
2018-05-16T00:37:47.771Z,100325.98
2018-05-16T00:40:19.557Z,100324.77
2018-05-16T00:42:50.941Z,100322.66
2018-05-16T00:45:24.269Z,100318.87
2018-05-16T00:50:41.769Z,100331.19
2018-05-16T00:53:15.820Z,100329.48
2018-05-16T00:55:50.053Z,100340.14
2018-05-16T00:58:20.174Z,100336.95
2018-05-16T01:00:50.712Z,100333.52
2018-05-16T01:03:22.618Z,100337.08
2018-05-16T01:06:03.480Z,100337.72
2018-05-16T01:17:10.687Z,100332.06
2018-05-16T01:19:45.327Z,100327.30
2018-05-16T01:22:17.875Z,100324.49
2018-05-16T01:24:57.676Z,100319.07
2018-05-16T01:27:33.280Z,100327.28
2018-05-16T01:30:05.051Z,100324.48
2018-05-16T01:32:55.453Z,100324.17
2018-05-16T01:35:33.132Z,100323.53
2018-05-16T01:38:04.363Z,100319.65
2018-05-16T01:43:33.471Z,100326.19
2018-05-16T01:46:05.271Z,100321.89
2018-05-16T01:54:18.770Z,100324.20
2018-05-16T01:59:46.981Z,100323.80
2018-05-16T02:02:30.995Z,100318.55
2018-05-16T02:05:05.076Z,100321.20
2018-05-16T02:10:32.584Z,100323.12
2018-05-16T02:13:08.434Z,100312.33
2018-05-16T02:15:54.316Z,100310.83
2018-05-16T02:18:25.963Z,100323.95
2018-05-16T02:21:00.378Z,100314.95
2018-05-16T02:23:32.081Z,100313.33
2018-05-16T02:26:06.987Z,100314.58
2018-05-16T02:34:24.139Z,100316.00
2018-05-16T02:37:03.463Z,100316.33
2018-05-16T02:42:22.832Z,100314.92
2018-05-16T02:45:00.801Z,100316.35
2018-05-16T02:50:17.860Z,100318.98
2018-05-16T02:55:41.903Z,100321.95
2018-05-16T02:58:12.747Z,100322.16
2018-05-16T03:00:43.166Z,100327.02
2018-05-16T03:03:13.733Z,100321.33
2018-05-16T03:08:40.122Z,100328.64
2018-05-16T03:11:15.085Z,100319.45
2018-05-16T03:13:52.103Z,100327.42
2018-05-16T03:16:24.480Z,100327.44
2018-05-16T03:19:04.348Z,100317.19
2018-05-16T03:21:38.182Z,100319.83
2018-05-16T03:24:07.917Z,100319.20
2018-05-16T03:26:38.663Z,100320.19
2018-05-16T03:32:09.479Z,100327.59
2018-05-16T03:34:39.814Z,100321.80
2018-05-16T03:37:20.538Z,100322.59
2018-05-16T03:39:58.343Z,100318.71
2018-05-16T03:51:05.540Z,100337.63
2018-05-16T04:25:33.483Z,100322.55
2018-05-16T04:33:49.132Z,100313.55
2018-05-16T04:39:13.917Z,100321.30
2018-05-16T04:55:53.228Z,100321.80
2018-05-16T04:58:30.051Z,100330.56
2018-05-16T05:01:03.571Z,100328.70
2018-05-16T05:03:41.146Z,100329.92
2018-05-16T05:09:00.802Z,100332.18
2018-05-16T05:11:31.574Z,100336.00
2018-05-16T05:28:11.477Z,100339.48
2018-05-16T05:33:35.520Z,100335.84
2018-05-16T05:36:22.914Z,100341.98
2018-05-16T05:38:59.517Z,100346.09
2018-05-16T05:47:15.140Z,100336.70
2018-05-16T06:01:08.700Z,100348.29
2018-05-16T06:12:20.963Z,100346.53
2018-05-16T06:15:03.487Z,100350.68
2018-05-16T06:17:42.755Z,100351.22
2018-05-16T06:56:45.243Z,100359.10
2018-05-16T06:59:25.054Z,100357.80
2018-05-16T07:01:58.948Z,100361.55
2018-05-16T07:04:27.915Z,100363.68
2018-05-16T07:07:06.428Z,100360.95
2018-05-16T07:12:26.808Z,100362.95
2018-05-16T07:20:45.043Z,100361.44
2018-05-16T07:23:14.082Z,100370.00
2018-05-16T07:31:19.993Z,100381.55
2018-05-16T07:33:49.353Z,100376.13
2018-05-16T07:39:20.647Z,100371.42
2018-05-16T07:44:40.776Z,100369.64
2018-05-16T07:50:00.004Z,100382.27
2018-05-16T07:52:34.119Z,100372.16
2018-05-16T07:55:10.530Z,100376.36
2018-05-16T07:57:42.306Z,100379.00
2018-05-16T08:00:22.612Z,100374.15
2018-05-16T08:02:54.374Z,100378.28
2018-05-16T08:08:11.710Z,100377.88
2018-05-16T08:16:19.773Z,100388.85
2018-05-16T08:21:47.578Z,100383.24
2018-05-16T08:27:09.853Z,100377.72
2018-05-16T08:29:44.145Z,100375.79
2018-05-16T08:35:04.054Z,100374.11
2018-05-16T08:45:57.315Z,100399.09
2018-05-16T08:51:16.639Z,100392.76
2018-05-16T08:59:25.782Z,100387.27
2018-05-16T09:07:37.768Z,100384.59
2018-05-16T09:15:46.535Z,100393.68
2018-05-16T09:21:10.052Z,100394.28
2018-05-16T09:23:41.878Z,100383.33
2018-05-16T09:26:20.899Z,100381.78
2018-05-16T09:28:57.868Z,100379.05
2018-05-16T09:31:29.062Z,100384.53
2018-05-16T09:34:06.920Z,100382.20
2018-05-16T09:36:44.357Z,100388.81
2018-05-16T09:39:14.710Z,100385.47
2018-05-16T09:41:45.128Z,100378.30
2018-05-16T09:44:20.820Z,100382.64
2018-05-16T09:46:50.737Z,100386.56
2018-05-16T09:49:19.907Z,100387.73
2018-05-16T09:51:48.911Z,100395.81
2018-05-16T09:54:28.877Z,100388.14
2018-05-16T09:56:59.125Z,100385.27
2018-05-16T09:59:28.371Z,100390.13
2018-05-16T10:02:00.619Z,100385.46
2018-05-16T10:07:18.574Z,100388.05
2018-05-16T10:09:50.256Z,100382.38
2018-05-16T10:12:23.055Z,100379.34
2018-05-16T10:14:54.767Z,100384.05
2018-05-16T10:17:25.122Z,100388.58
2018-05-16T10:19:54.592Z,100387.02
2018-05-16T10:22:27.891Z,100380.63
2018-05-16T10:24:59.277Z,100385.23
2018-05-16T10:27:28.403Z,100380.98
2018-05-16T10:32:53.659Z,100378.89
2018-05-16T10:35:28.521Z,100377.55
2018-05-16T10:38:11.079Z,100373.86
2018-05-16T10:40:42.910Z,100373.80
2018-05-16T10:43:15.395Z,100376.13
2018-05-16T10:45:47.106Z,100373.48
2018-05-16T10:48:18.869Z,100374.69
2018-05-16T10:51:00.453Z,100381.36
2018-05-16T10:53:32.178Z,100368.66
2018-05-16T10:56:08.061Z,100375.73
2018-05-16T11:01:27.857Z,100379.43
2018-05-16T11:04:02.131Z,100375.63
2018-05-16T11:06:36.027Z,100378.20
2018-05-16T11:09:14.853Z,100370.47
2018-05-16T11:11:47.349Z,100364.88
2018-05-16T11:14:18.834Z,100368.87
2018-05-16T11:19:39.380Z,100354.64
2018-05-16T11:22:10.511Z,100345.31
2018-05-16T11:24:50.796Z,100346.14
2018-05-16T11:35:50.657Z,100332.33
2018-05-16T11:38:22.288Z,100328.20
2018-05-16T11:40:53.598Z,100317.44
2018-05-16T11:43:23.869Z,100326.50
2018-05-16T11:46:09.085Z,100324.90
2018-05-16T11:48:40.721Z,100326.55
2018-05-16T11:51:11.325Z,100316.51
2018-05-16T11:59:17.771Z,100322.55
2018-05-16T12:01:47.962Z,100317.73
2018-05-16T12:04:18.398Z,100319.81
2018-05-16T12:12:22.853Z,100317.84
2018-05-16T12:14:57.097Z,100311.45
2018-05-16T12:17:30.885Z,100311.73
2018-05-16T12:20:18.971Z,100311.20
2018-05-16T12:22:53.544Z,100316.41
2018-05-16T12:28:18.732Z,100315.01
2018-05-16T12:30:56.579Z,100315.45
2018-05-16T12:33:30.541Z,100318.77
2018-05-16T12:36:01.878Z,100310.95
2018-05-16T12:38:33.439Z,100307.96
2018-05-16T12:44:06.349Z,100309.65
2018-05-16T12:46:46.024Z,100301.72
2018-05-16T12:49:20.494Z,100298.55
2018-05-16T13:00:20.726Z,100293.77
2018-05-16T13:02:50.953Z,100290.70
2018-05-16T13:05:25.196Z,100298.83
2018-05-16T13:10:50.268Z,100288.86
2018-05-16T13:13:19.807Z,100290.55
2018-05-16T13:18:40.524Z,100292.90
2018-05-16T13:21:18.418Z,100291.70
2018-05-16T13:23:47.259Z,100294.01
2018-05-16T13:26:18.864Z,100301.06
2018-05-16T13:40:12.130Z,100290.56
2018-05-16T13:42:44.466Z,100292.41
2018-05-16T13:45:15.043Z,100284.75
2018-05-16T13:47:55.531Z,100277.78
2018-05-16T13:50:24.879Z,100284.57
2018-05-16T13:52:59.428Z,100278.47
2018-05-16T13:55:33.738Z,100278.30
2018-05-16T13:58:05.263Z,100276.16
2018-05-16T14:00:38.212Z,100273.34
2018-05-16T14:03:09.867Z,100272.61
2018-05-16T14:05:38.873Z,100262.22
2018-05-16T14:10:58.792Z,100269.73
2018-05-16T14:19:11.028Z,100259.72
2018-05-16T14:21:45.138Z,100253.00
2018-05-16T14:24:15.465Z,100255.83
2018-05-16T14:26:47.177Z,100250.04
2018-05-16T14:29:16.095Z,100265.96
2018-05-16T14:31:49.600Z,100267.94
2018-05-16T14:34:23.541Z,100266.73
2018-05-16T14:36:54.096Z,100274.44
2018-05-16T14:39:24.805Z,100277.52
2018-05-16T14:41:56.820Z,100273.00
2018-05-16T14:44:27.007Z,100276.29
2018-05-16T14:46:56.096Z,100274.73
2018-05-16T14:49:25.423Z,100270.35
2018-05-16T14:51:54.493Z,100278.55
2018-05-16T14:54:27.752Z,100270.33
2018-05-16T14:56:58.535Z,100261.64
2018-05-16T14:59:37.713Z,100264.44
2018-05-16T15:02:08.717Z,100254.24
2018-05-16T15:04:38.460Z,100255.13
2018-05-16T15:07:08.173Z,100262.98
2018-05-16T15:09:37.461Z,100263.36
2018-05-16T15:12:08.734Z,100256.56
2018-05-16T15:14:41.391Z,100254.77
2018-05-16T15:17:13.018Z,100253.39
2018-05-16T15:19:43.424Z,100249.02
2018-05-16T15:22:13.051Z,100247.95
2018-05-16T15:24:43.010Z,100257.58
2018-05-16T15:27:12.474Z,100246.25
2018-05-16T15:29:41.863Z,100250.74
2018-05-16T15:32:12.612Z,100252.65
2018-05-16T15:34:49.712Z,100249.63
2018-05-16T15:37:22.005Z,100248.13
2018-05-16T15:39:59.158Z,100239.58
2018-05-16T15:42:28.384Z,100235.48
2018-05-16T15:47:46.646Z,100223.36
2018-05-16T15:50:18.798Z,100216.84
2018-05-16T15:52:49.116Z,100215.36
2018-05-16T15:55:20.065Z,100217.55
2018-05-16T15:57:50.873Z,100220.25
2018-05-16T16:00:19.943Z,100225.55
2018-05-16T16:02:52.239Z,100223.50
2018-05-16T16:05:22.546Z,100225.17
2018-05-16T16:07:51.973Z,100220.55
2018-05-16T16:10:21.496Z,100213.80
2018-05-16T16:12:51.081Z,100217.45
2018-05-16T16:15:20.342Z,100208.55
2018-05-16T16:17:53.194Z,100202.19
2018-05-16T16:20:22.617Z,100194.86
2018-05-16T16:22:54.310Z,100206.55
2018-05-16T16:25:25.184Z,100203.48
2018-05-16T16:27:54.569Z,100196.75
2018-05-16T16:30:25.675Z,100189.52
2018-05-16T16:32:55.048Z,100196.84
2018-05-16T16:35:26.236Z,100192.33
2018-05-16T16:37:55.823Z,100194.81
2018-05-16T16:40:26.057Z,100198.23
2018-05-16T16:42:55.360Z,100204.42
2018-05-16T16:45:25.034Z,100206.09
2018-05-16T16:47:59.502Z,100218.40
2018-05-16T16:50:28.945Z,100209.77
2018-05-16T16:52:59.068Z,100209.22
2018-05-16T16:55:29.412Z,100218.77
2018-05-16T16:58:00.110Z,100224.91
2018-05-16T17:00:32.948Z,100228.53
2018-05-16T17:03:02.577Z,100232.27
2018-05-16T17:05:32.144Z,100234.59
2018-05-16T17:08:01.541Z,100236.67
2018-05-16T17:10:35.292Z,100239.59
2018-05-16T17:13:04.558Z,100245.23
2018-05-16T17:15:33.984Z,100256.00
2018-05-16T17:18:09.352Z,100268.42
2018-05-16T17:20:39.502Z,100273.78
2018-05-16T17:23:11.564Z,100275.46
2018-05-16T17:25:42.162Z,100277.89
2018-05-16T17:28:11.526Z,100279.05
2018-05-16T17:30:49.133Z,100279.96
2018-05-16T17:33:24.986Z,100284.93
2018-05-16T17:35:55.506Z,100284.93
2018-05-16T17:38:24.489Z,100279.77
2018-05-16T17:40:53.876Z,100279.02
2018-05-16T17:43:23.141Z,100275.71
2018-05-16T17:45:52.745Z,100277.17
2018-05-16T17:48:21.723Z,100283.72
2018-05-16T17:50:54.705Z,100282.47
2018-05-16T17:53:28.873Z,100281.61
2018-05-16T17:55:59.025Z,100281.47
2018-05-16T17:58:30.962Z,100287.65
2018-05-16T18:01:00.430Z,100293.11
2018-05-16T18:03:33.754Z,100295.16
2018-05-16T18:06:07.645Z,100303.98
2018-05-16T18:08:37.945Z,100303.14
2018-05-16T18:11:08.235Z,100301.45
2018-05-16T18:13:48.669Z,100301.16
2018-05-16T18:19:48.783Z,100297.84
2018-05-16T18:25:17.931Z,100301.39
2018-05-16T18:27:47.346Z,100301.01
2018-05-16T18:30:18.589Z,100304.77
2018-05-16T18:32:48.932Z,100308.42
2018-05-16T18:35:19.595Z,100304.75
2018-05-16T18:37:52.694Z,100308.83
2018-05-16T18:40:32.781Z,100313.88
2018-05-16T18:43:12.132Z,100309.13
2018-05-16T18:45:42.205Z,100312.05
2018-05-16T18:48:15.837Z,100317.65
2018-05-16T18:50:55.223Z,100322.82
2018-05-16T18:53:36.647Z,100329.16
2018-05-16T18:56:08.732Z,100337.14
2018-05-16T18:58:40.240Z,100334.52
2018-05-16T19:01:17.955Z,100336.55
2018-05-16T19:03:47.630Z,100338.48
2018-05-16T19:06:18.698Z,100344.41
2018-05-16T19:08:48.878Z,100340.74
2018-05-16T19:11:17.756Z,100339.88
2018-05-16T19:13:49.707Z,100345.92
2018-05-16T19:16:24.010Z,100353.55
2018-05-16T19:21:45.656Z,100349.74
2018-05-16T19:24:14.656Z,100347.70
2018-05-16T19:26:46.789Z,100351.88
2018-05-16T19:29:17.203Z,100354.41
2018-05-16T19:31:46.553Z,100360.00
2018-05-16T19:34:16.700Z,100352.63
2018-05-16T19:36:50.682Z,100354.48
2018-05-16T19:39:20.078Z,100354.31
2018-05-16T19:41:51.730Z,100361.50
2018-05-16T19:44:22.041Z,100352.27
2018-05-16T19:46:54.312Z,100356.98
2018-05-16T19:49:24.708Z,100361.34
2018-05-16T19:51:55.312Z,100365.07
2018-05-16T19:54:24.309Z,100355.75
2018-05-16T19:57:02.086Z,100361.33
2018-05-16T19:59:31.173Z,100358.48
2018-05-16T20:02:02.853Z,100361.17
2018-05-16T20:04:31.760Z,100368.11
2018-05-16T20:07:00.697Z,100362.00
2018-05-16T20:09:33.087Z,100366.00
2018-05-16T20:12:04.624Z,100375.16
2018-05-16T20:14:34.777Z,100371.06
2018-05-16T20:17:06.944Z,100372.08
2018-05-16T20:19:35.872Z,100371.53
2018-05-16T20:22:08.740Z,100374.53
2018-05-16T20:24:37.924Z,100370.53
2018-05-16T20:27:09.722Z,100367.40
2018-05-16T20:29:42.088Z,100361.20
2018-05-16T20:32:12.764Z,100363.66
2018-05-16T20:34:46.121Z,100361.95
2018-05-16T20:37:14.952Z,100367.30
2018-05-16T20:39:45.277Z,100365.59
2018-05-16T20:42:17.563Z,100364.39
2018-05-16T20:44:55.746Z,100371.51
2018-05-16T20:47:31.765Z,100364.31
2018-05-16T20:50:02.447Z,100369.55
2018-05-16T20:52:36.026Z,100362.28
2018-05-16T20:55:06.219Z,100360.28
2018-05-16T20:57:43.278Z,100365.39
2018-05-16T21:00:11.932Z,100363.32
2018-05-16T21:02:40.936Z,100360.77
2018-05-16T21:05:10.077Z,100362.72
2018-05-16T21:07:38.705Z,100365.86
2018-05-16T21:10:07.906Z,100356.31
2018-05-16T21:12:39.742Z,100355.15
2018-05-16T21:15:10.765Z,100358.17
2018-05-16T21:17:39.826Z,100355.28
2018-05-16T21:20:09.707Z,100347.98
2018-05-16T21:22:38.637Z,100351.39
2018-05-16T21:25:08.118Z,100343.73
2018-05-16T21:27:37.529Z,100341.43
2018-05-16T21:30:13.185Z,100343.38
2018-05-16T21:32:44.530Z,100350.30
2018-05-16T21:35:18.737Z,100345.61
2018-05-16T21:37:49.406Z,100348.63
2018-05-16T21:40:18.427Z,100354.10
2018-05-16T21:42:48.745Z,100353.44
2018-05-16T21:45:18.276Z,100355.11
2018-05-16T21:47:48.473Z,100352.97
2018-05-16T21:53:08.781Z,100357.66
2018-05-16T21:58:27.182Z,100355.55
2018-05-16T22:01:01.043Z,100357.28
2018-05-16T22:03:41.827Z,100360.20
2018-05-16T22:06:11.574Z,100352.95
2018-05-16T22:08:42.917Z,100349.98
2018-05-16T22:11:13.320Z,100350.54
2018-05-16T22:13:47.497Z,100354.27
2018-05-16T22:16:19.054Z,100352.44
2018-05-16T22:18:49.333Z,100350.52
2018-05-16T22:21:22.489Z,100357.15
2018-05-16T22:23:54.939Z,100348.38
2018-05-16T22:26:24.667Z,100351.07
2018-05-16T22:28:58.833Z,100351.98
2018-05-16T22:31:48.862Z,100349.65
2018-05-16T22:34:37.555Z,100349.16
2018-05-16T22:37:24.487Z,100346.74
2018-05-16T22:40:12.326Z,100345.98
2018-05-16T22:42:46.355Z,100343.07
2018-05-16T22:45:39.338Z,100345.73
2018-05-16T22:48:10.326Z,100342.34
2018-05-16T22:50:40.761Z,100336.71
2018-05-16T22:53:10.981Z,100334.65
2018-05-16T22:55:39.969Z,100327.92
2018-05-16T22:58:10.914Z,100326.66
2018-05-16T23:00:51.590Z,100327.08
2018-05-16T23:03:20.559Z,100324.34
2018-05-16T23:05:51.650Z,100323.87
2018-05-16T23:08:29.141Z,100318.59
2018-05-16T23:11:08.272Z,100311.56
2018-05-16T23:13:56.705Z,100311.14
2018-05-16T23:16:26.908Z,100311.23
2018-05-16T23:18:56.012Z,100307.84
2018-05-16T23:21:27.350Z,100300.67
2018-05-16T23:23:57.959Z,100300.63
2018-05-16T23:26:29.309Z,100297.39
2018-05-16T23:29:06.175Z,100294.23
2018-05-16T23:31:36.575Z,100292.32
2018-05-16T23:34:10.458Z,100293.09
2018-05-16T23:36:39.437Z,100303.02
2018-05-16T23:39:12.245Z,100295.30
2018-05-16T23:44:30.626Z,100304.39
2018-05-16T23:47:00.011Z,100301.38
2018-05-16T23:52:19.750Z,100300.95
2018-05-16T23:54:53.513Z,100295.20
2018-05-16T23:57:22.507Z,100294.78
2018-05-16T23:59:53.724Z,100291.38
